sensor_id;sensor_type;location;lat;lon;timestamp;pressure;altitude;pressure_sealevel;temperature;humidity
52535;BME280;38443;53.164;5.802;2023-07-13T00:00:52;101310.25;;;16.25;100.00
52535;BME280;38443;53.164;5.802;2023-07-13T00:03:18;101318.72;;;16.17;100.00
52535;BME280;38443;53.164;5.802;2023-07-13T00:05:43;101320.81;;;16.10;100.00
52535;BME280;38443;53.164;5.802;2023-07-13T00:08:09;101319.22;;;16.06;100.00
52535;BME280;38443;53.164;5.802;2023-07-13T00:10:39;101326.50;;;16.04;100.00
52535;BME280;38443;53.164;5.802;2023-07-13T00:13:05;101330.06;;;16.05;100.00
52535;BME280;38443;53.164;5.802;2023-07-13T00:15:30;101317.53;;;16.04;100.00
52535;BME280;38443;53.164;5.802;2023-07-13T00:17:57;101323.00;;;16.02;100.00
52535;BME280;38443;53.164;5.802;2023-07-13T00:20:24;101326.63;;;16.01;100.00
52535;BME280;38443;53.164;5.802;2023-07-13T00:22:51;101323.19;;;15.98;100.00
52535;BME280;38443;53.164;5.802;2023-07-13T00:25:19;101320.56;;;15.96;100.00
52535;BME280;38443;53.164;5.802;2023-07-13T00:27:44;101330.63;;;15.92;100.00
52535;BME280;38443;53.164;5.802;2023-07-13T00:30:10;101334.19;;;15.93;100.00
52535;BME280;38443;53.164;5.802;2023-07-13T00:32:36;101333.44;;;15.89;100.00
52535;BME280;38443;53.164;5.802;2023-07-13T00:35:02;101328.94;;;15.90;100.00
52535;BME280;38443;53.164;5.802;2023-07-13T00:37:29;101319.22;;;15.86;100.00
52535;BME280;38443;53.164;5.802;2023-07-13T00:39:55;101325.53;;;15.85;100.00
52535;BME280;38443;53.164;5.802;2023-07-13T00:42:20;101329.19;;;15.84;100.00
52535;BME280;38443;53.164;5.802;2023-07-13T00:45:06;101321.22;;;15.81;100.00
52535;BME280;38443;53.164;5.802;2023-07-13T00:47:32;101312.31;;;15.79;100.00
52535;BME280;38443;53.164;5.802;2023-07-13T00:49:58;101321.38;;;15.78;100.00
52535;BME280;38443;53.164;5.802;2023-07-13T00:52:23;101320.69;;;15.72;100.00
52535;BME280;38443;53.164;5.802;2023-07-13T00:54:49;101320.75;;;15.69;100.00
52535;BME280;38443;53.164;5.802;2023-07-13T00:57:16;101324.44;;;15.68;100.00
52535;BME280;38443;53.164;5.802;2023-07-13T00:59:46;101313.75;;;15.65;100.00
52535;BME280;38443;53.164;5.802;2023-07-13T01:02:12;101320.16;;;15.63;100.00
52535;BME280;38443;53.164;5.802;2023-07-13T01:04:38;101322.00;;;15.62;100.00
52535;BME280;38443;53.164;5.802;2023-07-13T01:07:04;101321.94;;;15.64;100.00
52535;BME280;38443;53.164;5.802;2023-07-13T01:09:31;101321.03;;;15.63;100.00
52535;BME280;38443;53.164;5.802;2023-07-13T01:11:56;101319.28;;;15.62;100.00
52535;BME280;38443;53.164;5.802;2023-07-13T01:14:22;101322.91;;;15.61;100.00
52535;BME280;38443;53.164;5.802;2023-07-13T01:16:49;101327.50;;;15.59;100.00
52535;BME280;38443;53.164;5.802;2023-07-13T01:19:36;101328.56;;;15.55;100.00
52535;BME280;38443;53.164;5.802;2023-07-13T01:22:05;101326.13;;;15.49;100.00
52535;BME280;38443;53.164;5.802;2023-07-13T01:24:35;101327.16;;;15.46;100.00
52535;BME280;38443;53.164;5.802;2023-07-13T01:27:02;101330.97;;;15.41;100.00
52535;BME280;38443;53.164;5.802;2023-07-13T01:29:28;101337.50;;;15.35;100.00
52535;BME280;38443;53.164;5.802;2023-07-13T01:31:53;101340.41;;;15.30;100.00
52535;BME280;38443;53.164;5.802;2023-07-13T01:34:18;101336.03;;;15.28;100.00
52535;BME280;38443;53.164;5.802;2023-07-13T01:36:44;101322.66;;;15.25;100.00
52535;BME280;38443;53.164;5.802;2023-07-13T01:39:09;101320.91;;;15.24;100.00
52535;BME280;38443;53.164;5.802;2023-07-13T01:41:35;101322.69;;;15.23;100.00
52535;BME280;38443;53.164;5.802;2023-07-13T01:44:00;101332.56;;;15.24;100.00
52535;BME280;38443;53.164;5.802;2023-07-13T01:46:25;101330.88;;;15.22;100.00
52535;BME280;38443;53.164;5.802;2023-07-13T01:48:51;101335.47;;;15.20;100.00
52535;BME280;38443;53.164;5.802;2023-07-13T01:51:19;101327.41;;;15.18;100.00
52535;BME280;38443;53.164;5.802;2023-07-13T01:53:44;101330.06;;;15.20;100.00
52535;BME280;38443;53.164;5.802;2023-07-13T01:56:10;101319.19;;;15.21;100.00
52535;BME280;38443;53.164;5.802;2023-07-13T01:58:36;101324.53;;;15.23;100.00
52535;BME280;38443;53.164;5.802;2023-07-13T02:01:01;101326.22;;;15.25;100.00
52535;BME280;38443;53.164;5.802;2023-07-13T02:03:26;101329.88;;;15.24;100.00
52535;BME280;38443;53.164;5.802;2023-07-13T02:05:52;101324.47;;;15.24;100.00
52535;BME280;38443;53.164;5.802;2023-07-13T02:08:17;101328.09;;;15.23;100.00
52535;BME280;38443;53.164;5.802;2023-07-13T02:10:43;101324.59;;;15.21;100.00
52535;BME280;38443;53.164;5.802;2023-07-13T02:13:08;101322.09;;;15.16;100.00
52535;BME280;38443;53.164;5.802;2023-07-13T02:15:33;101318.63;;;15.13;100.00
52535;BME280;38443;53.164;5.802;2023-07-13T02:17:59;101320.47;;;15.12;100.00
52535;BME280;38443;53.164;5.802;2023-07-13T02:20:25;101327.72;;;15.10;100.00
52535;BME280;38443;53.164;5.802;2023-07-13T02:22:51;101324.16;;;15.10;100.00
52535;BME280;38443;53.164;5.802;2023-07-13T02:25:17;101318.94;;;15.05;100.00
52535;BME280;38443;53.164;5.802;2023-07-13T02:27:42;101328.91;;;15.03;100.00
52535;BME280;38443;53.164;5.802;2023-07-13T02:30:08;101332.56;;;15.02;100.00
52535;BME280;38443;53.164;5.802;2023-07-13T02:32:33;101328.84;;;15.05;100.00
52535;BME280;38443;53.164;5.802;2023-07-13T02:34:59;101340.41;;;15.08;100.00
52535;BME280;38443;53.164;5.802;2023-07-13T02:37:24;101342.91;;;15.13;100.00
52535;BME280;38443;53.164;5.802;2023-07-13T02:39:50;101347.16;;;15.19;100.00
52535;BME280;38443;53.164;5.802;2023-07-13T02:42:15;101339.22;;;15.15;100.00
52535;BME280;38443;53.164;5.802;2023-07-13T02:44:41;101346.50;;;15.13;100.00
52535;BME280;38443;53.164;5.802;2023-07-13T02:47:06;101342.03;;;15.12;100.00
52535;BME280;38443;53.164;5.802;2023-07-13T02:49:32;101343.84;;;15.12;100.00
52535;BME280;38443;53.164;5.802;2023-07-13T02:51:57;101343.03;;;15.10;100.00
52535;BME280;38443;53.164;5.802;2023-07-13T02:54:22;101342.22;;;15.08;100.00
52535;BME280;38443;53.164;5.802;2023-07-13T02:56:48;101349.50;;;15.06;100.00
52535;BME280;38443;53.164;5.802;2023-07-13T02:59:13;101351.38;;;15.04;100.00
52535;BME280;38443;53.164;5.802;2023-07-13T03:01:42;101354.13;;;15.02;100.00
52535;BME280;38443;53.164;5.802;2023-07-13T03:04:07;101349.84;;;14.96;100.00
52535;BME280;38443;53.164;5.802;2023-07-13T03:06:33;101343.78;;;14.91;100.00
52535;BME280;38443;53.164;5.802;2023-07-13T03:08:59;101350.28;;;14.86;100.00
52535;BME280;38443;53.164;5.802;2023-07-13T03:11:25;101354.91;;;14.82;100.00
52535;BME280;38443;53.164;5.802;2023-07-13T03:13:51;101358.66;;;14.78;100.00
52535;BME280;38443;53.164;5.802;2023-07-13T03:16:17;101347.94;;;14.76;100.00
52535;BME280;38443;53.164;5.802;2023-07-13T03:18:42;101360.53;;;14.76;100.00
52535;BME280;38443;53.164;5.802;2023-07-13T03:21:08;101358.03;;;14.71;100.00
52535;BME280;38443;53.164;5.802;2023-07-13T03:23:33;101360.81;;;14.68;100.00
52535;BME280;38443;53.164;5.802;2023-07-13T03:26:06;101361.69;;;14.69;100.00
52535;BME280;38443;53.164;5.802;2023-07-13T03:28:32;101365.44;;;14.65;100.00
52535;BME280;38443;53.164;5.802;2023-07-13T03:31:06;101364.66;;;14.61;100.00
52535;BME280;38443;53.164;5.802;2023-07-13T03:33:32;101371.06;;;14.59;100.00
52535;BME280;38443;53.164;5.802;2023-07-13T03:35:58;101364.00;;;14.56;100.00
52535;BME280;38443;53.164;5.802;2023-07-13T03:38:24;101370.25;;;14.55;100.00
52535;BME280;38443;53.164;5.802;2023-07-13T03:40:50;101367.66;;;14.53;100.00
52535;BME280;38443;53.164;5.802;2023-07-13T03:43:15;101376.59;;;14.54;100.00
52535;BME280;38443;53.164;5.802;2023-07-13T03:45:41;101372.25;;;14.50;100.00
52535;BME280;38443;53.164;5.802;2023-07-13T03:48:06;101376.78;;;14.49;100.00
52535;BME280;38443;53.164;5.802;2023-07-13T03:50:32;101378.56;;;14.49;100.00
52535;BME280;38443;53.164;5.802;2023-07-13T03:52:58;101381.25;;;14.49;100.00
52535;BME280;38443;53.164;5.802;2023-07-13T03:55:23;101377.66;;;14.50;100.00
52535;BME280;38443;53.164;5.802;2023-07-13T03:57:58;101390.06;;;14.54;100.00
52535;BME280;38443;53.164;5.802;2023-07-13T04:00:24;101392.72;;;14.55;100.00
52535;BME280;38443;53.164;5.802;2023-07-13T04:02:50;101380.16;;;14.56;100.00
52535;BME280;38443;53.164;5.802;2023-07-13T04:05:16;101391.81;;;14.55;100.00
52535;BME280;38443;53.164;5.802;2023-07-13T04:07:42;101383.72;;;14.56;100.00
52535;BME280;38443;53.164;5.802;2023-07-13T04:10:08;101390.88;;;14.58;100.00
52535;BME280;38443;53.164;5.802;2023-07-13T04:12:33;101390.88;;;14.58;100.00
52535;BME280;38443;53.164;5.802;2023-07-13T04:14:58;101387.19;;;14.60;100.00
52535;BME280;38443;53.164;5.802;2023-07-13T04:17:24;101394.25;;;14.63;100.00
52535;BME280;38443;53.164;5.802;2023-07-13T04:19:49;101391.50;;;14.64;100.00
52535;BME280;38443;53.164;5.802;2023-07-13T04:22:14;101390.66;;;14.64;100.00
52535;BME280;38443;53.164;5.802;2023-07-13T04:24:40;101402.19;;;14.67;100.00
52535;BME280;38443;53.164;5.802;2023-07-13T04:27:06;101402.94;;;14.71;100.00
52535;BME280;38443;53.164;5.802;2023-07-13T04:29:31;101406.44;;;14.73;100.00
52535;BME280;38443;53.164;5.802;2023-07-13T04:31:56;101406.44;;;14.73;100.00
52535;BME280;38443;53.164;5.802;2023-07-13T04:34:22;101412.59;;;14.76;100.00
52535;BME280;38443;53.164;5.802;2023-07-13T04:36:47;101409.81;;;14.80;100.00
52535;BME280;38443;53.164;5.802;2023-07-13T04:39:13;101417.72;;;14.84;100.00
52535;BME280;38443;53.164;5.802;2023-07-13T04:41:38;101406.88;;;14.86;100.00
52535;BME280;38443;53.164;5.802;2023-07-13T04:44:03;101410.34;;;14.89;100.00
52535;BME280;38443;53.164;5.802;2023-07-13T04:46:29;101417.53;;;14.89;100.00
52535;BME280;38443;53.164;5.802;2023-07-13T04:48:54;101419.31;;;14.90;100.00
52535;BME280;38443;53.164;5.802;2023-07-13T04:51:19;101425.50;;;14.92;100.00
52535;BME280;38443;53.164;5.802;2023-07-13T04:53:45;101432.59;;;14.94;100.00
52535;BME280;38443;53.164;5.802;2023-07-13T04:56:10;101434.38;;;14.95;100.00
52535;BME280;38443;53.164;5.802;2023-07-13T04:58:35;101438.69;;;15.00;100.00
52535;BME280;38443;53.164;5.802;2023-07-13T05:01:02;101436.81;;;15.02;100.00
52535;BME280;38443;53.164;5.802;2023-07-13T05:03:28;101428.66;;;15.03;100.00
52535;BME280;38443;53.164;5.802;2023-07-13T05:06:02;101437.47;;;15.08;100.00
52535;BME280;38443;53.164;5.802;2023-07-13T05:08:28;101445.34;;;15.13;100.00
52535;BME280;38443;53.164;5.802;2023-07-13T05:10:53;101439.81;;;15.18;100.00
52535;BME280;38443;53.164;5.802;2023-07-13T05:13:19;101458.50;;;15.22;100.00
52535;BME280;38443;53.164;5.802;2023-07-13T05:15:44;101452.97;;;15.25;100.00
52535;BME280;38443;53.164;5.802;2023-07-13T05:18:10;101457.19;;;15.32;100.00
52535;BME280;38443;53.164;5.802;2023-07-13T05:20:35;101465.09;;;15.37;100.00
52535;BME280;38443;53.164;5.802;2023-07-13T05:23:01;101464.94;;;15.42;100.00
52535;BME280;38443;53.164;5.802;2023-07-13T05:25:26;101460.22;;;15.47;100.00
52535;BME280;38443;53.164;5.802;2023-07-13T05:27:52;101460.94;;;15.52;100.00
52535;BME280;38443;53.164;5.802;2023-07-13T05:30:17;101470.59;;;15.58;100.00
52535;BME280;38443;53.164;5.802;2023-07-13T05:32:42;101467.75;;;15.61;100.00
52535;BME280;38443;53.164;5.802;2023-07-13T05:35:08;101467.66;;;15.64;100.00
52535;BME280;38443;53.164;5.802;2023-07-13T05:37:33;101459.38;;;15.68;100.00
52535;BME280;38443;53.164;5.802;2023-07-13T05:40:00;101477.13;;;15.75;100.00
52535;BME280;38443;53.164;5.802;2023-07-13T05:42:25;101475.09;;;15.81;100.00
52535;BME280;38443;53.164;5.802;2023-07-13T05:44:51;101468.56;;;15.86;100.00
52535;BME280;38443;53.164;5.802;2023-07-13T05:47:17;101477.28;;;15.93;100.00
52535;BME280;38443;53.164;5.802;2023-07-13T05:49:42;101476.16;;;15.99;100.00
52535;BME280;38443;53.164;5.802;2023-07-13T05:52:08;101471.34;;;16.05;100.00
52535;BME280;38443;53.164;5.802;2023-07-13T05:54:33;101474.75;;;16.10;100.00
52535;BME280;38443;53.164;5.802;2023-07-13T05:56:58;101466.44;;;16.15;100.00
52535;BME280;38443;53.164;5.802;2023-07-13T05:59:24;101458.09;;;16.21;100.00
52535;BME280;38443;53.164;5.802;2023-07-13T06:01:50;101461.53;;;16.25;100.00
52535;BME280;38443;53.164;5.802;2023-07-13T06:04:18;101460.47;;;16.29;100.00
52535;BME280;38443;53.164;5.802;2023-07-13T06:06:43;101462.94;;;16.33;100.00
52535;BME280;38443;53.164;5.802;2023-07-13T06:09:08;101461.00;;;16.37;100.00
52535;BME280;38443;53.164;5.802;2023-07-13T06:11:33;101452.78;;;16.40;100.00
52535;BME280;38443;53.164;5.802;2023-07-13T06:14:01;101459.59;;;16.49;100.00
52535;BME280;38443;53.164;5.802;2023-07-13T06:16:27;101461.94;;;16.57;100.00
52535;BME280;38443;53.164;5.802;2023-07-13T06:18:52;101463.50;;;16.62;100.00
52535;BME280;38443;53.164;5.802;2023-07-13T06:21:20;101462.28;;;16.69;100.00
52535;BME280;38443;53.164;5.802;2023-07-13T06:23:47;101463.69;;;16.78;100.00
52535;BME280;38443;53.164;5.802;2023-07-13T06:26:17;101465.25;;;16.84;100.00
52535;BME280;38443;53.164;5.802;2023-07-13T06:28:43;101462.38;;;16.88;100.00
52535;BME280;38443;53.164;5.802;2023-07-13T06:31:10;101470.19;;;16.94;100.00
52535;BME280;38443;53.164;5.802;2023-07-13T06:33:36;101471.75;;;17.00;100.00
52535;BME280;38443;53.164;5.802;2023-07-13T06:36:03;101463.41;;;17.05;100.00
52535;BME280;38443;53.164;5.802;2023-07-13T06:38:30;101465.47;;;17.57;100.00
52535;BME280;38443;53.164;5.802;2023-07-13T06:40:55;101476.91;;;18.52;100.00
52535;BME280;38443;53.164;5.802;2023-07-13T06:43:20;101470.59;;;19.20;100.00
52535;BME280;38443;53.164;5.802;2023-07-13T06:45:46;101466.28;;;19.81;100.00
52535;BME280;38443;53.164;5.802;2023-07-13T06:48:14;101466.91;;;20.46;100.00
52535;BME280;38443;53.164;5.802;2023-07-13T06:50:41;101464.88;;;20.95;100.00
52535;BME280;38443;53.164;5.802;2023-07-13T06:53:06;101469.13;;;20.70;100.00
52535;BME280;38443;53.164;5.802;2023-07-13T06:55:32;101467.31;;;20.24;100.00
52535;BME280;38443;53.164;5.802;2023-07-13T06:57:57;101470.03;;;19.94;100.00
52535;BME280;38443;53.164;5.802;2023-07-13T07:00:23;101478.88;;;19.66;100.00
52535;BME280;38443;53.164;5.802;2023-07-13T07:02:48;101483.50;;;19.48;100.00
52535;BME280;38443;53.164;5.802;2023-07-13T07:05:14;101474.66;;;19.28;100.00
52535;BME280;38443;53.164;5.802;2023-07-13T07:07:39;101477.91;;;19.51;100.00
52535;BME280;38443;53.164;5.802;2023-07-13T07:10:05;101471.16;;;19.90;100.00
52535;BME280;38443;53.164;5.802;2023-07-13T07:12:30;101478.97;;;19.80;100.00
52535;BME280;38443;53.164;5.802;2023-07-13T07:14:57;101480.78;;;19.48;100.00
52535;BME280;38443;53.164;5.802;2023-07-13T07:17:23;101488.94;;;19.48;100.00
52535;BME280;38443;53.164;5.802;2023-07-13T07:19:48;101486.94;;;19.67;100.00
52535;BME280;38443;53.164;5.802;2023-07-13T07:22:13;101498.28;;;19.76;100.00
52535;BME280;38443;53.164;5.802;2023-07-13T07:24:39;101491.09;;;19.75;100.00
52535;BME280;38443;53.164;5.802;2023-07-13T07:27:04;101491.50;;;19.51;100.00
52535;BME280;38443;53.164;5.802;2023-07-13T07:29:30;101497.94;;;19.17;100.00
52535;BME280;38443;53.164;5.802;2023-07-13T07:31:55;101490.78;;;18.98;100.00
52535;BME280;38443;53.164;5.802;2023-07-13T07:34:20;101497.84;;;18.85;100.00
52535;BME280;38443;53.164;5.802;2023-07-13T07:36:46;101495.44;;;18.79;100.00
52535;BME280;38443;53.164;5.802;2023-07-13T07:39:11;101493.63;;;18.79;100.00
52535;BME280;38443;53.164;5.802;2023-07-13T07:41:38;101493.75;;;18.93;100.00
52535;BME280;38443;53.164;5.802;2023-07-13T07:44:03;101494.31;;;19.16;100.00
52535;BME280;38443;53.164;5.802;2023-07-13T07:46:29;101501.19;;;19.23;100.00
52535;BME280;38443;53.164;5.802;2023-07-13T07:48:55;101494.69;;;19.26;100.00
52535;BME280;38443;53.164;5.802;2023-07-13T07:51:21;101496.03;;;19.35;100.00
52535;BME280;38443;53.164;5.802;2023-07-13T07:53:47;101496.34;;;19.93;100.00
52535;BME280;38443;53.164;5.802;2023-07-13T07:56:12;101487.94;;;20.28;100.00
52535;BME280;38443;53.164;5.802;2023-07-13T07:58:38;101485.38;;;20.86;100.00
52535;BME280;38443;53.164;5.802;2023-07-13T08:01:06;101487.31;;;21.41;100.00
52535;BME280;38443;53.164;5.802;2023-07-13T08:03:32;101473.16;;;21.78;100.00
52535;BME280;38443;53.164;5.802;2023-07-13T08:05:57;101474.09;;;21.91;100.00
52535;BME280;38443;53.164;5.802;2023-07-13T08:08:23;101490.50;;;22.04;100.00
52535;BME280;38443;53.164;5.802;2023-07-13T08:10:52;101480.09;;;22.23;100.00
52535;BME280;38443;53.164;5.802;2023-07-13T08:13:17;101475.81;;;22.46;100.00
52535;BME280;38443;53.164;5.802;2023-07-13T08:15:43;101475.38;;;22.40;100.00
52535;BME280;38443;53.164;5.802;2023-07-13T08:18:09;101476.34;;;21.84;100.00
52535;BME280;38443;53.164;5.802;2023-07-13T08:20:39;101486.22;;;22.00;100.00
52535;BME280;38443;53.164;5.802;2023-07-13T08:23:04;101476.38;;;22.64;100.00
52535;BME280;38443;53.164;5.802;2023-07-13T08:25:30;101480.13;;;23.02;100.00
52535;BME280;38443;53.164;5.802;2023-07-13T08:27:55;101477.81;;;22.96;100.00
52535;BME280;38443;53.164;5.802;2023-07-13T08:30:20;101481.72;;;22.79;100.00
52535;BME280;38443;53.164;5.802;2023-07-13T08:32:46;101475.97;;;22.83;100.00
52535;BME280;38443;53.164;5.802;2023-07-13T08:35:11;101481.59;;;22.55;100.00
52535;BME280;38443;53.164;5.802;2023-07-13T08:37:38;101483.22;;;22.32;100.00
52535;BME280;38443;53.164;5.802;2023-07-13T08:40:04;101492.03;;;22.08;100.00
52535;BME280;38443;53.164;5.802;2023-07-13T08:42:31;101497.31;;;21.69;100.00
52535;BME280;38443;53.164;5.802;2023-07-13T08:47:39;101497.84;;;22.43;100.00
52535;BME280;38443;53.164;5.802;2023-07-13T08:50:11;101497.53;;;22.61;100.00
52535;BME280;38443;53.164;5.802;2023-07-13T08:52:40;101497.31;;;22.51;100.00
52535;BME280;38443;53.164;5.802;2023-07-13T08:55:16;101495.72;;;22.61;100.00
52535;BME280;38443;53.164;5.802;2023-07-13T08:57:46;101496.81;;;22.84;100.00
52535;BME280;38443;53.164;5.802;2023-07-13T09:00:13;101496.47;;;22.63;100.00
52535;BME280;38443;53.164;5.802;2023-07-13T09:02:54;101508.59;;;22.59;100.00
52535;BME280;38443;53.164;5.802;2023-07-13T09:05:33;101503.91;;;22.74;100.00
52535;BME280;38443;53.164;5.802;2023-07-13T09:11:01;101511.84;;;22.52;100.00
52535;BME280;38443;53.164;5.802;2023-07-13T09:13:34;101511.88;;;22.77;100.00
52535;BME280;38443;53.164;5.802;2023-07-13T09:16:03;101512.19;;;22.73;100.00
52535;BME280;38443;53.164;5.802;2023-07-13T09:18:38;101528.31;;;21.96;100.00
52535;BME280;38443;53.164;5.802;2023-07-13T09:21:13;101527.28;;;21.41;100.00
52535;BME280;38443;53.164;5.802;2023-07-13T09:23:41;101528.19;;;21.56;100.00
52535;BME280;38443;53.164;5.802;2023-07-13T09:26:12;101523.53;;;21.85;100.00
52535;BME280;38443;53.164;5.802;2023-07-13T09:28:42;101519.81;;;22.00;100.00
52535;BME280;38443;53.164;5.802;2023-07-13T09:31:14;101530.03;;;22.11;100.00
52535;BME280;38443;53.164;5.802;2023-07-13T09:33:40;101527.38;;;22.37;100.00
52535;BME280;38443;53.164;5.802;2023-07-13T09:36:18;101531.72;;;22.66;99.18
52535;BME280;38443;53.164;5.802;2023-07-13T09:38:44;101528.47;;;22.74;100.00
52535;BME280;38443;53.164;5.802;2023-07-13T09:41:33;101533.78;;;22.63;92.61
52535;BME280;38443;53.164;5.802;2023-07-13T09:44:14;101537.84;;;22.70;97.69
52535;BME280;38443;53.164;5.802;2023-07-13T09:46:45;101537.22;;;22.79;99.38
52535;BME280;38443;53.164;5.802;2023-07-13T09:49:11;101543.91;;;22.48;100.00
52535;BME280;38443;53.164;5.802;2023-07-13T09:51:41;101542.34;;;22.17;99.63
52535;BME280;38443;53.164;5.802;2023-07-13T09:54:21;101549.06;;;21.84;99.15
52535;BME280;38443;53.164;5.802;2023-07-13T09:56:54;101553.78;;;21.53;100.00
52535;BME280;38443;53.164;5.802;2023-07-13T09:59:21;101552.41;;;21.60;100.00
52535;BME280;38443;53.164;5.802;2023-07-13T10:01:49;101550.06;;;21.40;100.00
52535;BME280;38443;53.164;5.802;2023-07-13T10:04:18;101549.88;;;21.43;100.00
52535;BME280;38443;53.164;5.802;2023-07-13T10:06:45;101544.59;;;21.40;100.00
52535;BME280;38443;53.164;5.802;2023-07-13T10:09:15;101566.09;;;21.16;100.00
52535;BME280;38443;53.164;5.802;2023-07-13T10:11:41;101563.00;;;21.22;100.00
52535;BME280;38443;53.164;5.802;2023-07-13T10:14:21;101558.16;;;21.27;100.00
52535;BME280;38443;53.164;5.802;2023-07-13T10:16:57;101568.72;;;21.31;100.00
52535;BME280;38443;53.164;5.802;2023-07-13T10:19:26;101572.41;;;21.30;100.00
52535;BME280;38443;53.164;5.802;2023-07-13T10:21:59;101570.97;;;21.25;100.00
52535;BME280;38443;53.164;5.802;2023-07-13T10:24:29;101574.75;;;21.37;100.00
52535;BME280;38443;53.164;5.802;2023-07-13T10:28:03;101573.00;;;21.79;100.00
52535;BME280;38443;53.164;5.802;2023-07-13T10:30:12;101581.34;;;22.04;100.00
52535;BME280;38443;53.164;5.802;2023-07-13T10:32:40;101579.28;;;22.08;100.00
52535;BME280;38443;53.164;5.802;2023-07-13T10:35:09;101584.78;;;22.21;100.00
52535;BME280;38443;53.164;5.802;2023-07-13T10:37:43;101592.38;;;21.88;100.00
52535;BME280;38443;53.164;5.802;2023-07-13T10:40:16;101588.31;;;21.67;100.00
52535;BME280;38443;53.164;5.802;2023-07-13T10:42:47;101570.69;;;21.58;100.00
52535;BME280;38443;53.164;5.802;2023-07-13T10:45:18;101583.25;;;21.61;100.00
52535;BME280;38443;53.164;5.802;2023-07-13T10:47:44;101583.69;;;21.24;100.00
52535;BME280;38443;53.164;5.802;2023-07-13T10:50:23;101584.44;;;20.98;100.00
52535;BME280;38443;53.164;5.802;2023-07-13T10:53:03;101601.47;;;20.71;100.00
52535;BME280;38443;53.164;5.802;2023-07-13T10:55:38;101600.53;;;20.86;100.00
52535;BME280;38443;53.164;5.802;2023-07-13T10:58:19;101604.88;;;21.05;100.00
52535;BME280;38443;53.164;5.802;2023-07-13T11:01:03;101608.41;;;21.36;100.00
52535;BME280;38443;53.164;5.802;2023-07-13T11:03:29;101612.94;;;21.65;100.00
52535;BME280;38443;53.164;5.802;2023-07-13T11:09:07;101608.44;;;21.79;100.00
52535;BME280;38443;53.164;5.802;2023-07-13T11:11:42;101616.44;;;21.67;99.53
52535;BME280;38443;53.164;5.802;2023-07-13T11:14:27;101614.19;;;21.74;100.00
52535;BME280;38443;53.164;5.802;2023-07-13T11:16:54;101613.41;;;21.86;100.00
52535;BME280;38443;53.164;5.802;2023-07-13T11:25:20;101624.91;;;21.77;100.00
52535;BME280;38443;53.164;5.802;2023-07-13T11:27:52;101625.41;;;21.69;100.00
52535;BME280;38443;53.164;5.802;2023-07-13T11:33:19;101622.56;;;21.85;100.00
52535;BME280;38443;53.164;5.802;2023-07-13T11:35:59;101628.19;;;21.97;100.00
52535;BME280;38443;53.164;5.802;2023-07-13T11:41:17;101630.38;;;22.19;100.00
52535;BME280;38443;53.164;5.802;2023-07-13T11:43:45;101623.19;;;22.32;100.00
52535;BME280;38443;53.164;5.802;2023-07-13T11:46:24;101631.19;;;22.35;97.47
52535;BME280;38443;53.164;5.802;2023-07-13T11:48:50;101632.16;;;22.20;99.72
52535;BME280;38443;53.164;5.802;2023-07-13T11:51:27;101637.72;;;22.04;91.93
52535;BME280;38443;53.164;5.802;2023-07-13T11:53:55;101615.22;;;22.00;98.17
52535;BME280;38443;53.164;5.802;2023-07-13T11:56:22;101636.09;;;22.01;97.49
52535;BME280;38443;53.164;5.802;2023-07-13T11:58:51;101630.41;;;22.04;95.94
52535;BME280;38443;53.164;5.802;2023-07-13T12:01:29;101634.97;;;22.18;97.01
52535;BME280;38443;53.164;5.802;2023-07-13T12:03:58;101638.38;;;22.22;98.98
52535;BME280;38443;53.164;5.802;2023-07-13T12:06:28;101636.84;;;22.03;93.88
52535;BME280;38443;53.164;5.802;2023-07-13T12:08:58;101650.59;;;21.87;97.97
52535;BME280;38443;53.164;5.802;2023-07-13T12:11:24;101646.03;;;21.74;98.51
52535;BME280;38443;53.164;5.802;2023-07-13T12:13:50;101642.69;;;21.68;100.00
52535;BME280;38443;53.164;5.802;2023-07-13T12:16:28;101650.88;;;21.68;95.84
52535;BME280;38443;53.164;5.802;2023-07-13T12:18:55;101650.38;;;21.90;99.41
52535;BME280;38443;53.164;5.802;2023-07-13T12:21:26;101657.31;;;21.96;96.54
52535;BME280;38443;53.164;5.802;2023-07-13T12:23:52;101651.75;;;21.98;99.85
52535;BME280;38443;53.164;5.802;2023-07-13T12:26:18;101652.53;;;22.00;100.00
52535;BME280;38443;53.164;5.802;2023-07-13T12:28:55;101650.38;;;22.34;100.00
52535;BME280;38443;53.164;5.802;2023-07-13T12:31:42;101645.41;;;22.53;100.00
52535;BME280;38443;53.164;5.802;2023-07-13T12:36:45;101656.00;;;22.30;100.00
52535;BME280;38443;53.164;5.802;2023-07-13T12:41:46;101647.91;;;22.29;100.00
52535;BME280;38443;53.164;5.802;2023-07-13T12:44:15;101650.47;;;22.32;100.00
52535;BME280;38443;53.164;5.802;2023-07-13T12:46:52;101655.91;;;22.32;100.00
52535;BME280;38443;53.164;5.802;2023-07-13T12:49:23;101664.47;;;22.40;100.00
52535;BME280;38443;53.164;5.802;2023-07-13T12:51:56;101657.88;;;22.01;100.00
52535;BME280;38443;53.164;5.802;2023-07-13T12:54:24;101665.09;;;21.88;100.00
52535;BME280;38443;53.164;5.802;2023-07-13T12:56:50;101670.25;;;21.92;100.00
52535;BME280;38443;53.164;5.802;2023-07-13T12:59:20;101656.72;;;22.05;100.00
52535;BME280;38443;53.164;5.802;2023-07-13T13:01:47;101657.00;;;22.29;100.00
52535;BME280;38443;53.164;5.802;2023-07-13T13:04:15;101666.22;;;22.27;100.00
52535;BME280;38443;53.164;5.802;2023-07-13T13:06:41;101662.53;;;22.14;100.00
52535;BME280;38443;53.164;5.802;2023-07-13T13:09:13;101677.25;;;22.11;100.00